Flight Track Log - Related Links

Times and Time Zones

All times are in EDT time to prevent confusion due to time zone crossing. See the ASQ421T flight status page for this flight to view local times or setup timezone preferences in your user account.

Time Position Orientation Groundspeed Altitude Reporting Facility
EDT Latitude Longitude Course Direction KTS MPH feet Rate Location/Type
Mon 10:39:25 PM 29.9944 -95.3564 316° Northwest 121 139 700  Level Houston Center
Mon 10:40:20 PM 30.0294 -95.3958 316° Northwest 241 277 2,500 1,756 Climbing Houston Center
Mon 10:40:47 PM 30.0561 -95.4042 345° North 239 275 3,100 1,636 Climbing Houston Center
Mon 10:41:48 PM 30.1264 -95.4347 339° North 262 302 4,900 984 Climbing Houston Center
Mon 10:42:49 PM 30.1967 -95.4722 335° Northwest 274 315 5,100 1,230 Climbing Houston Center
Mon 10:43:50 PM 30.2683 -95.5103 335° Northwest 280 322 7,400 2,262 Climbing Houston Center
Mon 10:44:51 PM 30.3403 -95.5483 335° Northwest 284 327 9,700 1,672 Climbing Houston Center
Mon 10:45:52 PM 30.4181 -95.5906 335° Northwest 298 343 10,800 1,131 Climbing Houston Center
Mon 10:46:53 PM 30.5081 -95.6381 336° Northwest 351 404 12,000 1,230 Climbing Houston Center
Mon 10:47:54 PM 30.6003 -95.6864 336° Northwest 363 418 13,300 984 Climbing Houston Center
Mon 10:48:55 PM 30.7119 -95.7461 335° Northwest 370 426 14,000 344 Climbing Houston Center
Mon 10:49:56 PM 30.8114 -95.8000 335° Northwest 382 440 14,000  Level Houston Center
Mon 10:50:57 PM 30.9119 -95.8542 335° Northwest 393 452 14,000  Level Houston Center
Mon 10:51:58 PM 31.0122 -95.9064 336° Northwest 393 452 14,000  Level Houston Center
Mon 10:52:59 PM 31.1106 -95.9600 335° Northwest 390 449 14,000  Level Houston Center
Mon 10:54:01 PM 31.2158 -95.9881 347° North 389 448 14,000  Level Houston Center
Mon 10:55:02 PM 31.3208 -96.0131 349° North 385 443 14,000  Level Houston Center
Mon 10:56:03 PM 31.4269 -96.0375 349° North 384 442 14,000  Level Houston Center
Mon 10:57:04 PM 31.5319 -96.0650 347° North 384 442 14,000  Level Houston Center
Mon 10:58:05 PM 31.6364 -96.1006 344° North 384 442 14,000  Level Houston Center
Mon 10:58:49 PM 31.7286 -96.1311 344° North 379 436 14,000  Level Fort Worth Center
Mon 10:59:49 PM 31.8314 -96.1711 342° North 387 445 14,000  Level Fort Worth Center
Mon 11:00:49 PM 31.9339 -96.1992 347° North 382 440 14,000  Level Fort Worth Center
Mon 11:01:49 PM 32.0347 -96.2369 342° North 382 440 14,000 -650 Level Fort Worth Center
Mon 11:02:49 PM 32.1394 -96.2725 344° North 382 440 12,700 -1,350 Descending Fort Worth Center
Mon 11:03:49 PM 32.2294 -96.3008 345° North 376 433 11,300 -1,350 Descending Fort Worth Center
Mon 11:04:49 PM 32.3214 -96.3317 344° North 330 380 10,000 -1,100 Descending Fort Worth Center
Mon 11:05:49 PM 32.3947 -96.3556 345° North 303 349 9,100 -600 Descending Fort Worth Center
Mon 11:06:49 PM 32.4786 -96.3964 338° Northwest 296 341 8,800 -650 Descending Fort Worth Center
Mon 11:07:49 PM 32.5456 -96.4375 333° Northwest 296 341 7,800 -1,150 Descending Fort Worth Center
Mon 11:08:49 PM 32.6233 -96.4836 333° Northwest 289 333 6,500 -1,100 Descending Fort Worth Center
Mon 11:09:49 PM 32.6861 -96.5247 331° Northwest 289 333 5,600 -750 Descending Fort Worth Center
Mon 11:10:49 PM 32.7472 -96.5908 318° Northwest 275 316 5,000 -700 Descending Fort Worth Center
Mon 11:11:49 PM 32.7997 -96.6447 319° Northwest 270 311 4,200 -950 Descending Fort Worth Center
Mon 11:12:49 PM 32.8628 -96.7111 319° Northwest 270 311 3,100 -600 Descending Fort Worth Center
Mon 11:13:49 PM 32.9131 -96.7600 321° Northwest 264 304 3,000 -100 Descending Fort Worth Center
Mon 11:14:49 PM 32.9447 -96.8292 299° West 256 295 2,900 -500 Descending Fort Worth Center
Mon 11:15:49 PM 32.9242 -96.8764 243° Southwest 157 181 2,000 -700 Descending Fort Worth Center
Mon 11:16:49 PM 32.8928 -96.8939 205° Southwest 141 162 1,500 -590 Descending Fort Worth Center
Mon 11:17:51 PM 32.8667 -96.8667 139° Southeast 114 131 800 -677 Descending Dallas / Fort Worth TRACON
Mon 11:19:00 PM 32.8471 -96.8518 196° South  Level Estimated
Mon 11:26:00 PM 32.8471 -96.8518 196° South  Level Estimated

Login

Don't have an account? Register now (free) for customized features, flight alerts, and more!